sensor_id;sensor_type;location;lat;lon;timestamp;P1;durP1;ratioP1;P2;durP2;ratioP2
11960;SDS011;6040;49.358;11.140;2023-07-31T00:01:15;4.80;;;2.00;;
11960;SDS011;6040;49.358;11.140;2023-07-31T00:03:43;4.50;;;1.90;;
11960;SDS011;6040;49.358;11.140;2023-07-31T00:06:10;4.43;;;1.90;;
11960;SDS011;6040;49.358;11.140;2023-07-31T00:08:36;12.43;;;3.07;;
11960;SDS011;6040;49.358;11.140;2023-07-31T00:11:03;3.70;;;1.63;;
11960;SDS011;6040;49.358;11.140;2023-07-31T00:13:30;5.13;;;2.20;;
11960;SDS011;6040;49.358;11.140;2023-07-31T00:15:57;2.93;;;2.00;;
11960;SDS011;6040;49.358;11.140;2023-07-31T00:18:24;2.80;;;2.07;;
11960;SDS011;6040;49.358;11.140;2023-07-31T00:20:52;4.77;;;1.90;;
11960;SDS011;6040;49.358;11.140;2023-07-31T00:23:19;2.80;;;1.87;;
11960;SDS011;6040;49.358;11.140;2023-07-31T00:25:45;3.37;;;1.77;;
11960;SDS011;6040;49.358;11.140;2023-07-31T00:28:12;5.47;;;1.90;;
11960;SDS011;6040;49.358;11.140;2023-07-31T00:30:39;3.33;;;1.90;;
11960;SDS011;6040;49.358;11.140;2023-07-31T00:33:06;5.33;;;2.00;;
11960;SDS011;6040;49.358;11.140;2023-07-31T00:35:33;4.90;;;2.23;;
11960;SDS011;6040;49.358;11.140;2023-07-31T00:38:01;4.23;;;2.07;;
11960;SDS011;6040;49.358;11.140;2023-07-31T00:40:27;5.03;;;2.17;;
11960;SDS011;6040;49.358;11.140;2023-07-31T00:42:54;5.00;;;2.23;;
11960;SDS011;6040;49.358;11.140;2023-07-31T00:45:21;5.33;;;2.27;;
11960;SDS011;6040;49.358;11.140;2023-07-31T00:47:49;4.40;;;2.00;;
11960;SDS011;6040;49.358;11.140;2023-07-31T00:50:16;2.87;;;2.10;;
11960;SDS011;6040;49.358;11.140;2023-07-31T00:52:43;4.23;;;2.00;;
11960;SDS011;6040;49.358;11.140;2023-07-31T00:55:11;5.10;;;2.03;;
11960;SDS011;6040;49.358;11.140;2023-07-31T00:57:38;6.30;;;2.50;;
11960;SDS011;6040;49.358;11.140;2023-07-31T01:00:08;5.80;;;2.27;;
11960;SDS011;6040;49.358;11.140;2023-07-31T01:02:35;4.00;;;2.03;;
11960;SDS011;6040;49.358;11.140;2023-07-31T01:05:03;3.07;;;2.23;;
11960;SDS011;6040;49.358;11.140;2023-07-31T01:07:31;5.03;;;2.37;;
11960;SDS011;6040;49.358;11.140;2023-07-31T01:10:07;5.03;;;2.50;;
11960;SDS011;6040;49.358;11.140;2023-07-31T01:12:38;4.07;;;2.20;;
11960;SDS011;6040;49.358;11.140;2023-07-31T01:15:07;4.97;;;2.37;;
11960;SDS011;6040;49.358;11.140;2023-07-31T01:17:36;3.00;;;2.23;;
11960;SDS011;6040;49.358;11.140;2023-07-31T01:20:04;3.77;;;2.13;;
11960;SDS011;6040;49.358;11.140;2023-07-31T01:22:39;2.40;;;1.87;;
11960;SDS011;6040;49.358;11.140;2023-07-31T01:25:33;4.37;;;2.00;;
11960;SDS011;6040;49.358;11.140;2023-07-31T01:28:19;4.23;;;2.43;;
11960;SDS011;6040;49.358;11.140;2023-07-31T01:30:51;8.53;;;2.30;;
11960;SDS011;6040;49.358;11.140;2023-07-31T01:33:21;4.63;;;2.30;;
11960;SDS011;6040;49.358;11.140;2023-07-31T01:35:48;3.93;;;2.10;;
11960;SDS011;6040;49.358;11.140;2023-07-31T01:38:15;5.77;;;2.13;;
11960;SDS011;6040;49.358;11.140;2023-07-31T01:40:51;3.03;;;2.00;;
11960;SDS011;6040;49.358;11.140;2023-07-31T01:43:19;6.17;;;2.30;;
11960;SDS011;6040;49.358;11.140;2023-07-31T01:45:46;5.50;;;2.40;;
11960;SDS011;6040;49.358;11.140;2023-07-31T01:48:12;4.50;;;2.00;;
11960;SDS011;6040;49.358;11.140;2023-07-31T01:50:39;5.17;;;2.20;;
11960;SDS011;6040;49.358;11.140;2023-07-31T01:53:06;4.80;;;2.07;;
11960;SDS011;6040;49.358;11.140;2023-07-31T01:55:33;3.90;;;1.90;;
11960;SDS011;6040;49.358;11.140;2023-07-31T01:58:01;4.33;;;2.07;;
11960;SDS011;6040;49.358;11.140;2023-07-31T02:00:28;6.30;;;2.07;;
11960;SDS011;6040;49.358;11.140;2023-07-31T02:02:54;6.47;;;2.60;;
11960;SDS011;6040;49.358;11.140;2023-07-31T02:05:21;10.13;;;2.00;;
11960;SDS011;6040;49.358;11.140;2023-07-31T02:07:48;4.07;;;2.00;;
11960;SDS011;6040;49.358;11.140;2023-07-31T02:10:15;4.83;;;2.67;;
11960;SDS011;6040;49.358;11.140;2023-07-31T02:12:42;4.40;;;1.90;;
11960;SDS011;6040;49.358;11.140;2023-07-31T02:15:10;3.73;;;2.30;;
11960;SDS011;6040;49.358;11.140;2023-07-31T02:17:37;6.83;;;2.17;;
11960;SDS011;6040;49.358;11.140;2023-07-31T02:20:04;4.57;;;2.10;;
11960;SDS011;6040;49.358;11.140;2023-07-31T02:22:32;3.90;;;2.20;;
11960;SDS011;6040;49.358;11.140;2023-07-31T02:24:59;3.37;;;1.87;;
11960;SDS011;6040;49.358;11.140;2023-07-31T02:27:25;3.73;;;2.13;;
11960;SDS011;6040;49.358;11.140;2023-07-31T02:29:52;3.37;;;1.80;;
11960;SDS011;6040;49.358;11.140;2023-07-31T02:32:20;4.57;;;1.83;;
11960;SDS011;6040;49.358;11.140;2023-07-31T02:34:47;6.50;;;2.20;;
11960;SDS011;6040;49.358;11.140;2023-07-31T02:37:14;3.03;;;2.10;;
11960;SDS011;6040;49.358;11.140;2023-07-31T02:39:41;4.20;;;2.10;;
11960;SDS011;6040;49.358;11.140;2023-07-31T02:42:08;5.03;;;2.00;;
11960;SDS011;6040;49.358;11.140;2023-07-31T02:44:34;3.17;;;2.00;;
11960;SDS011;6040;49.358;11.140;2023-07-31T02:47:01;4.80;;;1.97;;
11960;SDS011;6040;49.358;11.140;2023-07-31T02:49:30;4.10;;;2.07;;
11960;SDS011;6040;49.358;11.140;2023-07-31T02:51:57;6.67;;;1.97;;
11960;SDS011;6040;49.358;11.140;2023-07-31T02:54:24;2.23;;;1.70;;
11960;SDS011;6040;49.358;11.140;2023-07-31T02:56:50;5.77;;;1.90;;
11960;SDS011;6040;49.358;11.140;2023-07-31T02:59:17;3.63;;;1.80;;
11960;SDS011;6040;49.358;11.140;2023-07-31T03:01:44;3.73;;;1.97;;
11960;SDS011;6040;49.358;11.140;2023-07-31T03:04:11;4.13;;;2.00;;
11960;SDS011;6040;49.358;11.140;2023-07-31T03:06:39;3.60;;;1.70;;
11960;SDS011;6040;49.358;11.140;2023-07-31T03:09:06;3.87;;;1.93;;
11960;SDS011;6040;49.358;11.140;2023-07-31T03:11:33;3.83;;;2.17;;
11960;SDS011;6040;49.358;11.140;2023-07-31T03:13:59;4.93;;;2.00;;
11960;SDS011;6040;49.358;11.140;2023-07-31T03:16:26;3.47;;;1.97;;
11960;SDS011;6040;49.358;11.140;2023-07-31T03:18:53;4.43;;;1.90;;
11960;SDS011;6040;49.358;11.140;2023-07-31T03:21:20;3.87;;;2.00;;
11960;SDS011;6040;49.358;11.140;2023-07-31T03:23:48;4.30;;;2.10;;
11960;SDS011;6040;49.358;11.140;2023-07-31T03:26:15;5.93;;;2.23;;
11960;SDS011;6040;49.358;11.140;2023-07-31T03:28:42;3.47;;;2.10;;
11960;SDS011;6040;49.358;11.140;2023-07-31T03:31:09;11.73;;;3.83;;
11960;SDS011;6040;49.358;11.140;2023-07-31T03:33:36;7.10;;;2.20;;
11960;SDS011;6040;49.358;11.140;2023-07-31T03:36:03;6.27;;;2.40;;
11960;SDS011;6040;49.358;11.140;2023-07-31T03:38:31;5.27;;;2.30;;
11960;SDS011;6040;49.358;11.140;2023-07-31T03:40:59;6.50;;;2.10;;
11960;SDS011;6040;49.358;11.140;2023-07-31T03:43:27;3.53;;;1.80;;
11960;SDS011;6040;49.358;11.140;2023-07-31T03:45:54;5.40;;;1.80;;
11960;SDS011;6040;49.358;11.140;2023-07-31T03:48:21;4.03;;;2.00;;
11960;SDS011;6040;49.358;11.140;2023-07-31T03:50:47;4.50;;;1.87;;
11960;SDS011;6040;49.358;11.140;2023-07-31T03:53:14;5.30;;;1.83;;
11960;SDS011;6040;49.358;11.140;2023-07-31T03:55:41;5.43;;;2.20;;
11960;SDS011;6040;49.358;11.140;2023-07-31T03:58:09;4.43;;;2.00;;
11960;SDS011;6040;49.358;11.140;2023-07-31T04:00:36;3.47;;;1.70;;
11960;SDS011;6040;49.358;11.140;2023-07-31T04:03:03;3.50;;;2.00;;
11960;SDS011;6040;49.358;11.140;2023-07-31T04:05:30;5.17;;;1.87;;
11960;SDS011;6040;49.358;11.140;2023-07-31T04:07:57;3.57;;;1.70;;
11960;SDS011;6040;49.358;11.140;2023-07-31T04:10:24;3.63;;;1.97;;
11960;SDS011;6040;49.358;11.140;2023-07-31T04:12:51;4.70;;;1.80;;
11960;SDS011;6040;49.358;11.140;2023-07-31T04:15:19;5.27;;;2.07;;
11960;SDS011;6040;49.358;11.140;2023-07-31T04:17:45;3.53;;;2.20;;
11960;SDS011;6040;49.358;11.140;2023-07-31T04:20:12;4.20;;;2.07;;
11960;SDS011;6040;49.358;11.140;2023-07-31T04:22:39;4.90;;;1.93;;
11960;SDS011;6040;49.358;11.140;2023-07-31T04:25:06;6.63;;;1.97;;
11960;SDS011;6040;49.358;11.140;2023-07-31T04:27:33;2.47;;;1.57;;
11960;SDS011;6040;49.358;11.140;2023-07-31T04:30:00;3.90;;;1.83;;
11960;SDS011;6040;49.358;11.140;2023-07-31T04:32:28;3.47;;;1.93;;
11960;SDS011;6040;49.358;11.140;2023-07-31T04:34:55;4.07;;;1.93;;
11960;SDS011;6040;49.358;11.140;2023-07-31T04:37:22;4.13;;;1.73;;
11960;SDS011;6040;49.358;11.140;2023-07-31T04:39:48;5.27;;;1.90;;
11960;SDS011;6040;49.358;11.140;2023-07-31T04:42:15;4.20;;;2.10;;
11960;SDS011;6040;49.358;11.140;2023-07-31T04:44:42;4.77;;;2.00;;
11960;SDS011;6040;49.358;11.140;2023-07-31T04:47:09;6.40;;;1.73;;
11960;SDS011;6040;49.358;11.140;2023-07-31T04:49:37;3.90;;;1.97;;
11960;SDS011;6040;49.358;11.140;2023-07-31T04:52:04;2.40;;;1.87;;
11960;SDS011;6040;49.358;11.140;2023-07-31T04:54:31;5.40;;;2.17;;
11960;SDS011;6040;49.358;11.140;2023-07-31T04:56:58;5.73;;;1.70;;
11960;SDS011;6040;49.358;11.140;2023-07-31T04:59:25;3.53;;;1.67;;
11960;SDS011;6040;49.358;11.140;2023-07-31T05:01:52;4.07;;;2.40;;
11960;SDS011;6040;49.358;11.140;2023-07-31T05:04:18;2.70;;;1.80;;
11960;SDS011;6040;49.358;11.140;2023-07-31T05:06:46;1.70;;;1.50;;
11960;SDS011;6040;49.358;11.140;2023-07-31T05:09:13;3.20;;;1.90;;
11960;SDS011;6040;49.358;11.140;2023-07-31T05:11:40;3.30;;;1.80;;
11960;SDS011;6040;49.358;11.140;2023-07-31T05:14:08;7.03;;;1.80;;
11960;SDS011;6040;49.358;11.140;2023-07-31T05:16:34;2.83;;;1.70;;
11960;SDS011;6040;49.358;11.140;2023-07-31T05:19:01;3.07;;;1.80;;
11960;SDS011;6040;49.358;11.140;2023-07-31T05:21:28;3.33;;;2.00;;
11960;SDS011;6040;49.358;11.140;2023-07-31T05:23:56;4.30;;;2.10;;
11960;SDS011;6040;49.358;11.140;2023-07-31T05:26:23;2.97;;;1.97;;
11960;SDS011;6040;49.358;11.140;2023-07-31T05:28:50;4.80;;;1.87;;
11960;SDS011;6040;49.358;11.140;2023-07-31T05:31:16;3.67;;;2.03;;
11960;SDS011;6040;49.358;11.140;2023-07-31T05:33:43;2.83;;;1.97;;
11960;SDS011;6040;49.358;11.140;2023-07-31T05:36:11;2.60;;;1.80;;
11960;SDS011;6040;49.358;11.140;2023-07-31T05:38:38;3.67;;;1.83;;
11960;SDS011;6040;49.358;11.140;2023-07-31T05:41:07;2.27;;;1.70;;
11960;SDS011;6040;49.358;11.140;2023-07-31T05:43:34;4.23;;;1.80;;
11960;SDS011;6040;49.358;11.140;2023-07-31T05:46:01;2.70;;;1.73;;
11960;SDS011;6040;49.358;11.140;2023-07-31T05:48:27;5.57;;;2.07;;
11960;SDS011;6040;49.358;11.140;2023-07-31T05:50:54;2.57;;;1.80;;
11960;SDS011;6040;49.358;11.140;2023-07-31T05:53:21;5.93;;;1.83;;
11960;SDS011;6040;49.358;11.140;2023-07-31T05:55:48;7.90;;;2.20;;
11960;SDS011;6040;49.358;11.140;2023-07-31T05:58:16;2.73;;;2.03;;
11960;SDS011;6040;49.358;11.140;2023-07-31T06:00:43;2.63;;;2.00;;
11960;SDS011;6040;49.358;11.140;2023-07-31T06:03:10;4.33;;;1.83;;
11960;SDS011;6040;49.358;11.140;2023-07-31T06:05:37;4.53;;;1.97;;
11960;SDS011;6040;49.358;11.140;2023-07-31T06:08:03;3.50;;;1.90;;
11960;SDS011;6040;49.358;11.140;2023-07-31T06:10:30;3.27;;;1.70;;
11960;SDS011;6040;49.358;11.140;2023-07-31T06:12:57;6.00;;;2.13;;
11960;SDS011;6040;49.358;11.140;2023-07-31T06:15:25;2.67;;;1.60;;
11960;SDS011;6040;49.358;11.140;2023-07-31T06:17:52;4.70;;;2.10;;
11960;SDS011;6040;49.358;11.140;2023-07-31T06:20:19;2.90;;;2.10;;
11960;SDS011;6040;49.358;11.140;2023-07-31T06:22:45;3.23;;;2.00;;
11960;SDS011;6040;49.358;11.140;2023-07-31T06:25:12;3.90;;;2.37;;
11960;SDS011;6040;49.358;11.140;2023-07-31T06:27:39;3.03;;;1.70;;
11960;SDS011;6040;49.358;11.140;2023-07-31T06:30:06;4.83;;;2.00;;
11960;SDS011;6040;49.358;11.140;2023-07-31T06:32:35;3.20;;;1.73;;
11960;SDS011;6040;49.358;11.140;2023-07-31T06:35:02;3.27;;;2.17;;
11960;SDS011;6040;49.358;11.140;2023-07-31T06:37:29;3.40;;;1.80;;
11960;SDS011;6040;49.358;11.140;2023-07-31T06:39:56;5.00;;;2.13;;
11960;SDS011;6040;49.358;11.140;2023-07-31T06:42:22;6.13;;;2.03;;
11960;SDS011;6040;49.358;11.140;2023-07-31T06:44:49;4.17;;;1.90;;
11960;SDS011;6040;49.358;11.140;2023-07-31T06:47:16;4.07;;;1.83;;
11960;SDS011;6040;49.358;11.140;2023-07-31T06:49:44;5.77;;;2.10;;
11960;SDS011;6040;49.358;11.140;2023-07-31T06:52:11;3.07;;;2.20;;
11960;SDS011;6040;49.358;11.140;2023-07-31T06:54:38;3.40;;;2.00;;
11960;SDS011;6040;49.358;11.140;2023-07-31T06:57:05;5.03;;;2.03;;
11960;SDS011;6040;49.358;11.140;2023-07-31T06:59:32;8.30;;;2.20;;
11960;SDS011;6040;49.358;11.140;2023-07-31T07:01:58;3.37;;;2.10;;
11960;SDS011;6040;49.358;11.140;2023-07-31T07:04:25;4.43;;;2.07;;
11960;SDS011;6040;49.358;11.140;2023-07-31T07:06:54;3.83;;;2.17;;
11960;SDS011;6040;49.358;11.140;2023-07-31T07:09:20;4.23;;;1.90;;
11960;SDS011;6040;49.358;11.140;2023-07-31T07:11:47;4.53;;;1.90;;
11960;SDS011;6040;49.358;11.140;2023-07-31T07:14:14;2.80;;;1.77;;
11960;SDS011;6040;49.358;11.140;2023-07-31T07:16:41;7.33;;;2.40;;
11960;SDS011;6040;49.358;11.140;2023-07-31T07:19:07;4.50;;;2.07;;
11960;SDS011;6040;49.358;11.140;2023-07-31T07:21:34;5.20;;;2.30;;
11960;SDS011;6040;49.358;11.140;2023-07-31T07:24:02;5.00;;;2.40;;
11960;SDS011;6040;49.358;11.140;2023-07-31T07:26:30;5.00;;;2.30;;
11960;SDS011;6040;49.358;11.140;2023-07-31T07:28:56;4.60;;;2.37;;
11960;SDS011;6040;49.358;11.140;2023-07-31T07:31:26;4.43;;;2.50;;
11960;SDS011;6040;49.358;11.140;2023-07-31T07:33:53;6.43;;;2.53;;
11960;SDS011;6040;49.358;11.140;2023-07-31T07:36:19;5.90;;;2.30;;
11960;SDS011;6040;49.358;11.140;2023-07-31T07:38:46;6.23;;;2.33;;
11960;SDS011;6040;49.358;11.140;2023-07-31T07:41:14;4.17;;;2.30;;
11960;SDS011;6040;49.358;11.140;2023-07-31T07:43:41;5.43;;;2.50;;
11960;SDS011;6040;49.358;11.140;2023-07-31T07:46:08;4.53;;;2.10;;
11960;SDS011;6040;49.358;11.140;2023-07-31T07:48:35;3.43;;;2.00;;
11960;SDS011;6040;49.358;11.140;2023-07-31T07:51:01;4.60;;;2.40;;
11960;SDS011;6040;49.358;11.140;2023-07-31T07:53:28;5.40;;;2.47;;
11960;SDS011;6040;49.358;11.140;2023-07-31T07:55:55;3.87;;;2.20;;
11960;SDS011;6040;49.358;11.140;2023-07-31T07:58:23;5.00;;;2.33;;
11960;SDS011;6040;49.358;11.140;2023-07-31T08:00:50;10.23;;;2.50;;
11960;SDS011;6040;49.358;11.140;2023-07-31T08:03:17;5.83;;;2.43;;
11960;SDS011;6040;49.358;11.140;2023-07-31T08:05:44;4.73;;;2.50;;
11960;SDS011;6040;49.358;11.140;2023-07-31T08:08:13;5.47;;;2.30;;
11960;SDS011;6040;49.358;11.140;2023-07-31T08:10:41;5.50;;;2.17;;
11960;SDS011;6040;49.358;11.140;2023-07-31T08:13:09;7.50;;;2.37;;
11960;SDS011;6040;49.358;11.140;2023-07-31T08:15:37;3.77;;;2.20;;
11960;SDS011;6040;49.358;11.140;2023-07-31T08:18:06;3.90;;;2.50;;
11960;SDS011;6040;49.358;11.140;2023-07-31T08:20:33;4.53;;;2.40;;
11960;SDS011;6040;49.358;11.140;2023-07-31T08:23:00;5.73;;;2.37;;
11960;SDS011;6040;49.358;11.140;2023-07-31T08:25:27;4.33;;;2.50;;
11960;SDS011;6040;49.358;11.140;2023-07-31T08:27:54;7.50;;;2.40;;
11960;SDS011;6040;49.358;11.140;2023-07-31T08:30:21;4.03;;;2.20;;
11960;SDS011;6040;49.358;11.140;2023-07-31T08:32:49;5.73;;;2.50;;
11960;SDS011;6040;49.358;11.140;2023-07-31T08:35:16;6.07;;;2.10;;
11960;SDS011;6040;49.358;11.140;2023-07-31T08:37:43;6.43;;;2.40;;
11960;SDS011;6040;49.358;11.140;2023-07-31T08:40:10;3.03;;;2.13;;
11960;SDS011;6040;49.358;11.140;2023-07-31T08:42:43;4.57;;;2.30;;
11960;SDS011;6040;49.358;11.140;2023-07-31T08:45:12;4.60;;;2.20;;
11960;SDS011;6040;49.358;11.140;2023-07-31T08:47:40;4.77;;;1.90;;
11960;SDS011;6040;49.358;11.140;2023-07-31T08:50:10;3.53;;;2.40;;
11960;SDS011;6040;49.358;11.140;2023-07-31T08:52:38;6.20;;;2.20;;
11960;SDS011;6040;49.358;11.140;2023-07-31T08:55:05;4.13;;;2.23;;
11960;SDS011;6040;49.358;11.140;2023-07-31T08:57:34;4.97;;;2.50;;
11960;SDS011;6040;49.358;11.140;2023-07-31T09:00:03;3.67;;;2.37;;
11960;SDS011;6040;49.358;11.140;2023-07-31T09:02:35;6.00;;;2.20;;
11960;SDS011;6040;49.358;11.140;2023-07-31T09:05:07;3.57;;;2.17;;
11960;SDS011;6040;49.358;11.140;2023-07-31T09:07:37;4.63;;;2.30;;
11960;SDS011;6040;49.358;11.140;2023-07-31T09:10:04;5.40;;;2.40;;
11960;SDS011;6040;49.358;11.140;2023-07-31T09:12:32;3.83;;;1.93;;
11960;SDS011;6040;49.358;11.140;2023-07-31T09:14:59;3.63;;;2.23;;
11960;SDS011;6040;49.358;11.140;2023-07-31T09:17:30;4.40;;;2.27;;
11960;SDS011;6040;49.358;11.140;2023-07-31T09:19:57;4.67;;;2.03;;
11960;SDS011;6040;49.358;11.140;2023-07-31T09:22:39;7.50;;;2.40;;
11960;SDS011;6040;49.358;11.140;2023-07-31T09:25:13;3.83;;;2.40;;
11960;SDS011;6040;49.358;11.140;2023-07-31T09:27:48;5.80;;;2.30;;
11960;SDS011;6040;49.358;11.140;2023-07-31T09:30:16;3.20;;;2.10;;
11960;SDS011;6040;49.358;11.140;2023-07-31T09:32:44;7.13;;;2.37;;
11960;SDS011;6040;49.358;11.140;2023-07-31T09:35:19;3.80;;;2.00;;
11960;SDS011;6040;49.358;11.140;2023-07-31T09:37:52;5.03;;;2.30;;
11960;SDS011;6040;49.358;11.140;2023-07-31T09:40:30;2.77;;;2.00;;
11960;SDS011;6040;49.358;11.140;2023-07-31T09:42:58;2.40;;;1.87;;
11960;SDS011;6040;49.358;11.140;2023-07-31T09:45:25;4.10;;;2.20;;
11960;SDS011;6040;49.358;11.140;2023-07-31T09:47:53;4.30;;;2.33;;
11960;SDS011;6040;49.358;11.140;2023-07-31T09:50:20;4.95;;;2.30;;
11960;SDS011;6040;49.358;11.140;2023-07-31T09:52:48;2.80;;;1.93;;
11960;SDS011;6040;49.358;11.140;2023-07-31T09:55:16;3.72;;;2.05;;
11960;SDS011;6040;49.358;11.140;2023-07-31T09:57:45;3.40;;;2.00;;
11960;SDS011;6040;49.358;11.140;2023-07-31T10:00:13;4.60;;;2.05;;
11960;SDS011;6040;49.358;11.140;2023-07-31T10:02:41;6.23;;;2.43;;
11960;SDS011;6040;49.358;11.140;2023-07-31T10:05:10;4.47;;;1.95;;
11960;SDS011;6040;49.358;11.140;2023-07-31T10:07:39;2.70;;;1.88;;
11960;SDS011;6040;49.358;11.140;2023-07-31T10:10:09;6.63;;;2.20;;
11960;SDS011;6040;49.358;11.140;2023-07-31T10:12:37;9.48;;;2.28;;
11960;SDS011;6040;49.358;11.140;2023-07-31T10:15:05;2.93;;;2.17;;
11960;SDS011;6040;49.358;11.140;2023-07-31T10:17:33;4.10;;;2.50;;
11960;SDS011;6040;49.358;11.140;2023-07-31T10:20:01;3.13;;;1.90;;
11960;SDS011;6040;49.358;11.140;2023-07-31T10:22:30;2.70;;;2.13;;
11960;SDS011;6040;49.358;11.140;2023-07-31T10:24:57;3.43;;;2.03;;
11960;SDS011;6040;49.358;11.140;2023-07-31T10:27:25;5.50;;;2.17;;
11960;SDS011;6040;49.358;11.140;2023-07-31T10:29:54;3.50;;;1.95;;
11960;SDS011;6040;49.358;11.140;2023-07-31T10:32:22;4.07;;;1.90;;
11960;SDS011;6040;49.358;11.140;2023-07-31T10:34:50;4.70;;;2.07;;
11960;SDS011;6040;49.358;11.140;2023-07-31T10:37:24;4.50;;;2.13;;
11960;SDS011;6040;49.358;11.140;2023-07-31T10:39:56;4.60;;;2.17;;
11960;SDS011;6040;49.358;11.140;2023-07-31T10:42:27;2.47;;;2.03;;
11960;SDS011;6040;49.358;11.140;2023-07-31T10:45:01;4.53;;;2.30;;
11960;SDS011;6040;49.358;11.140;2023-07-31T10:47:29;3.83;;;2.27;;
11960;SDS011;6040;49.358;11.140;2023-07-31T10:50:12;4.73;;;2.53;;
11960;SDS011;6040;49.358;11.140;2023-07-31T10:52:43;2.50;;;2.10;;
11960;SDS011;6040;49.358;11.140;2023-07-31T10:55:16;4.47;;;2.10;;
11960;SDS011;6040;49.358;11.140;2023-07-31T10:57:51;6.17;;;2.23;;
11960;SDS011;6040;49.358;11.140;2023-07-31T11:00:20;4.97;;;2.17;;
11960;SDS011;6040;49.358;11.140;2023-07-31T11:02:56;5.22;;;2.30;;
11960;SDS011;6040;49.358;11.140;2023-07-31T11:08:12;3.53;;;2.20;;
11960;SDS011;6040;49.358;11.140;2023-07-31T11:10:40;3.50;;;2.00;;
11960;SDS011;6040;49.358;11.140;2023-07-31T11:13:08;4.78;;;2.00;;
11960;SDS011;6040;49.358;11.140;2023-07-31T11:15:36;3.72;;;2.13;;
11960;SDS011;6040;49.358;11.140;2023-07-31T11:18:03;4.07;;;2.10;;
11960;SDS011;6040;49.358;11.140;2023-07-31T11:20:30;4.93;;;2.27;;
11960;SDS011;6040;49.358;11.140;2023-07-31T11:22:58;2.80;;;2.10;;
11960;SDS011;6040;49.358;11.140;2023-07-31T11:25:28;3.20;;;2.20;;
11960;SDS011;6040;49.358;11.140;2023-07-31T11:27:56;3.07;;;1.97;;
11960;SDS011;6040;49.358;11.140;2023-07-31T11:30:23;4.73;;;2.40;;
11960;SDS011;6040;49.358;11.140;2023-07-31T11:32:51;5.20;;;2.33;;
11960;SDS011;6040;49.358;11.140;2023-07-31T11:35:18;3.07;;;2.03;;
11960;SDS011;6040;49.358;11.140;2023-07-31T11:37:45;3.30;;;2.10;;
11960;SDS011;6040;49.358;11.140;2023-07-31T11:40:12;3.37;;;2.20;;
11960;SDS011;6040;49.358;11.140;2023-07-31T11:42:38;3.63;;;2.10;;
11960;SDS011;6040;49.358;11.140;2023-07-31T11:45:06;3.33;;;2.10;;
11960;SDS011;6040;49.358;11.140;2023-07-31T11:47:34;4.00;;;2.13;;
11960;SDS011;6040;49.358;11.140;2023-07-31T11:50:04;4.23;;;2.40;;
11960;SDS011;6040;49.358;11.140;2023-07-31T11:52:33;3.93;;;2.27;;
11960;SDS011;6040;49.358;11.140;2023-07-31T11:55:03;3.70;;;2.30;;
11960;SDS011;6040;49.358;11.140;2023-07-31T11:57:31;3.73;;;2.23;;
11960;SDS011;6040;49.358;11.140;2023-07-31T11:59:59;7.00;;;2.57;;
11960;SDS011;6040;49.358;11.140;2023-07-31T12:02:26;3.37;;;2.97;;
11960;SDS011;6040;49.358;11.140;2023-07-31T12:04:53;4.83;;;2.23;;
11960;SDS011;6040;49.358;11.140;2023-07-31T12:07:21;4.20;;;2.40;;
11960;SDS011;6040;49.358;11.140;2023-07-31T12:09:51;4.20;;;2.30;;
11960;SDS011;6040;49.358;11.140;2023-07-31T12:12:19;3.03;;;2.17;;
11960;SDS011;6040;49.358;11.140;2023-07-31T12:14:47;3.50;;;2.53;;
11960;SDS011;6040;49.358;11.140;2023-07-31T12:17:13;3.63;;;2.30;;
11960;SDS011;6040;49.358;11.140;2023-07-31T12:19:40;4.30;;;2.40;;
11960;SDS011;6040;49.358;11.140;2023-07-31T12:22:11;4.80;;;2.50;;
11960;SDS011;6040;49.358;11.140;2023-07-31T12:24:42;4.97;;;2.40;;
11960;SDS011;6040;49.358;11.140;2023-07-31T12:27:10;4.50;;;2.70;;
11960;SDS011;6040;49.358;11.140;2023-07-31T12:29:38;4.30;;;2.80;;
11960;SDS011;6040;49.358;11.140;2023-07-31T12:32:17;4.83;;;3.07;;
11960;SDS011;6040;49.358;11.140;2023-07-31T12:34:45;5.17;;;3.17;;
11960;SDS011;6040;49.358;11.140;2023-07-31T12:37:12;4.60;;;3.13;;
11960;SDS011;6040;49.358;11.140;2023-07-31T12:39:40;5.00;;;3.17;;
11960;SDS011;6040;49.358;11.140;2023-07-31T12:42:07;5.83;;;3.23;;
11960;SDS011;6040;49.358;11.140;2023-07-31T12:44:34;3.87;;;2.50;;
11960;SDS011;6040;49.358;11.140;2023-07-31T12:47:01;5.90;;;3.27;;
11960;SDS011;6040;49.358;11.140;2023-07-31T12:49:29;5.17;;;3.33;;
11960;SDS011;6040;49.358;11.140;2023-07-31T12:51:55;4.23;;;2.73;;
11960;SDS011;6040;49.358;11.140;2023-07-31T12:54:22;5.10;;;2.60;;
11960;SDS011;6040;49.358;11.140;2023-07-31T12:56:50;4.30;;;2.80;;
11960;SDS011;6040;49.358;11.140;2023-07-31T12:59:17;5.83;;;3.17;;
11960;SDS011;6040;49.358;11.140;2023-07-31T13:01:44;5.53;;;2.87;;
11960;SDS011;6040;49.358;11.140;2023-07-31T13:04:11;5.67;;;3.20;;
11960;SDS011;6040;49.358;11.140;2023-07-31T13:06:37;6.80;;;3.13;;
11960;SDS011;6040;49.358;11.140;2023-07-31T13:09:04;5.93;;;3.07;;
11960;SDS011;6040;49.358;11.140;2023-07-31T13:11:31;9.07;;;3.10;;
11960;SDS011;6040;49.358;11.140;2023-07-31T13:13:59;5.70;;;3.10;;
11960;SDS011;6040;49.358;11.140;2023-07-31T13:16:26;6.07;;;2.83;;
11960;SDS011;6040;49.358;11.140;2023-07-31T13:18:53;3.97;;;2.87;;
11960;SDS011;6040;49.358;11.140;2023-07-31T13:21:20;4.40;;;2.90;;
11960;SDS011;6040;49.358;11.140;2023-07-31T13:23:47;3.27;;;2.33;;
11960;SDS011;6040;49.358;11.140;2023-07-31T13:26:14;4.40;;;2.80;;
11960;SDS011;6040;49.358;11.140;2023-07-31T13:28:40;4.05;;;2.90;;
11960;SDS011;6040;49.358;11.140;2023-07-31T13:31:09;3.87;;;2.63;;
11960;SDS011;6040;49.358;11.140;2023-07-31T13:33:36;4.40;;;2.65;;
11960;SDS011;6040;49.358;11.140;2023-07-31T13:36:03;6.13;;;3.17;;
11960;SDS011;6040;49.358;11.140;2023-07-31T13:38:30;6.27;;;2.90;;
11960;SDS011;6040;49.358;11.140;2023-07-31T13:40:57;5.00;;;3.10;;
11960;SDS011;6040;49.358;11.140;2023-07-31T13:43:24;3.35;;;2.60;;
11960;SDS011;6040;49.358;11.140;2023-07-31T13:45:51;5.35;;;2.75;;
11960;SDS011;6040;49.358;11.140;2023-07-31T13:48:19;3.75;;;3.00;;
11960;SDS011;6040;49.358;11.140;2023-07-31T13:50:46;4.23;;;2.60;;
11960;SDS011;6040;49.358;11.140;2023-07-31T13:53:13;4.00;;;2.83;;
11960;SDS011;6040;49.358;11.140;2023-07-31T13:55:40;5.80;;;3.03;;
11960;SDS011;6040;49.358;11.140;2023-07-31T13:58:10;5.32;;;2.90;;
11960;SDS011;6040;49.358;11.140;2023-07-31T14:00:37;5.43;;;2.80;;
11960;SDS011;6040;49.358;11.140;2023-07-31T14:03:03;4.72;;;2.78;;
11960;SDS011;6040;49.358;11.140;2023-07-31T14:05:32;6.47;;;2.90;;
11960;SDS011;6040;49.358;11.140;2023-07-31T14:07:59;5.45;;;2.80;;
11960;SDS011;6040;49.358;11.140;2023-07-31T14:10:26;4.28;;;2.95;;
11960;SDS011;6040;49.358;11.140;2023-07-31T14:12:52;4.67;;;2.70;;
11960;SDS011;6040;49.358;11.140;2023-07-31T14:15:19;6.35;;;3.08;;
11960;SDS011;6040;49.358;11.140;2023-07-31T14:17:46;5.77;;;2.90;;
11960;SDS011;6040;49.358;11.140;2023-07-31T14:20:13;6.30;;;2.80;;
11960;SDS011;6040;49.358;11.140;2023-07-31T14:22:41;4.97;;;2.73;;
11960;SDS011;6040;49.358;11.140;2023-07-31T14:25:08;4.23;;;2.60;;
11960;SDS011;6040;49.358;11.140;2023-07-31T14:27:35;4.83;;;2.63;;
11960;SDS011;6040;49.358;11.140;2023-07-31T14:30:02;4.87;;;2.93;;
11960;SDS011;6040;49.358;11.140;2023-07-31T14:32:29;5.30;;;2.63;;
11960;SDS011;6040;49.358;11.140;2023-07-31T14:34:56;4.67;;;2.90;;
11960;SDS011;6040;49.358;11.140;2023-07-31T14:37:25;4.83;;;3.10;;
11960;SDS011;6040;49.358;11.140;2023-07-31T14:39:53;5.20;;;2.90;;
11960;SDS011;6040;49.358;11.140;2023-07-31T14:42:21;5.93;;;2.77;;
11960;SDS011;6040;49.358;11.140;2023-07-31T14:44:48;4.53;;;2.80;;
11960;SDS011;6040;49.358;11.140;2023-07-31T14:47:14;3.83;;;2.53;;
11960;SDS011;6040;49.358;11.140;2023-07-31T14:49:41;4.97;;;2.67;;
11960;SDS011;6040;49.358;11.140;2023-07-31T14:52:08;5.47;;;2.93;;
11960;SDS011;6040;49.358;11.140;2023-07-31T14:54:35;4.70;;;2.70;;